sensor_id;sensor_type;location;lat;lon;timestamp;pressure;altitude;pressure_sealevel;temperature
40047;BMP280;31510;48.122;11.576;2022-10-28T00:01:02;96590.47;;;12.39
40047;BMP280;31510;48.122;11.576;2022-10-28T00:03:27;96590.56;;;12.36
40047;BMP280;31510;48.122;11.576;2022-10-28T00:08:20;96594.00;;;12.36
40047;BMP280;31510;48.122;11.576;2022-10-28T00:10:46;96592.81;;;12.37
40047;BMP280;31510;48.122;11.576;2022-10-28T00:13:11;96584.78;;;12.37
40047;BMP280;31510;48.122;11.576;2022-10-28T00:15:36;96589.31;;;12.40
40047;BMP280;31510;48.122;11.576;2022-10-28T00:18:01;96586.19;;;12.42
40047;BMP280;31510;48.122;11.576;2022-10-28T00:20:29;96581.59;;;12.42
40047;BMP280;31510;48.122;11.576;2022-10-28T00:22:54;96585.56;;;12.38
40047;BMP280;31510;48.122;11.576;2022-10-28T00:25:19;96581.91;;;12.32
40047;BMP280;31510;48.122;11.576;2022-10-28T00:27:49;96585.47;;;12.29
40047;BMP280;31510;48.122;11.576;2022-10-28T00:30:14;96593.25;;;12.24
40047;BMP280;31510;48.122;11.576;2022-10-28T00:32:39;96588.75;;;12.21
40047;BMP280;31510;48.122;11.576;2022-10-28T00:35:05;96590.25;;;12.22
40047;BMP280;31510;48.122;11.576;2022-10-28T00:37:30;96574.97;;;12.22
40047;BMP280;31510;48.122;11.576;2022-10-28T00:39:56;96587.56;;;12.22
40047;BMP280;31510;48.122;11.576;2022-10-28T00:42:21;96583.84;;;12.19
40047;BMP280;31510;48.122;11.576;2022-10-28T00:44:48;96577.53;;;12.13
40047;BMP280;31510;48.122;11.576;2022-10-28T00:49:54;96576.53;;;12.07
40047;BMP280;31510;48.122;11.576;2022-10-28T00:52:23;96579.63;;;12.06
40047;BMP280;31510;48.122;11.576;2022-10-28T00:54:51;96575.91;;;12.03
40047;BMP280;31510;48.122;11.576;2022-10-28T00:57:20;96571.28;;;12.04
40047;BMP280;31510;48.122;11.576;2022-10-28T00:59:48;96568.19;;;12.05
40047;BMP280;31510;48.122;11.576;2022-10-28T01:02:15;96563.69;;;12.02
40047;BMP280;31510;48.122;11.576;2022-10-28T01:04:41;96572.50;;;12.03
40047;BMP280;31510;48.122;11.576;2022-10-28T01:07:07;96567.97;;;12.00
40047;BMP280;31510;48.122;11.576;2022-10-28T01:09:33;96567.03;;;11.94
40047;BMP280;31510;48.122;11.576;2022-10-28T01:15:03;96568.09;;;11.96
40047;BMP280;31510;48.122;11.576;2022-10-28T01:31:52;96551.19;;;11.87
40047;BMP280;31510;48.122;11.576;2022-10-28T01:39:31;96560.88;;;11.81
40047;BMP280;31510;48.122;11.576;2022-10-28T01:42:16;96553.28;;;11.80
40047;BMP280;31510;48.122;11.576;2022-10-28T01:44:49;96557.91;;;11.79
40047;BMP280;31510;48.122;11.576;2022-10-28T01:47:19;96557.78;;;11.83
40047;BMP280;31510;48.122;11.576;2022-10-28T01:49:50;96555.88;;;11.83
40047;BMP280;31510;48.122;11.576;2022-10-28T01:52:21;96560.56;;;11.79
40047;BMP280;31510;48.122;11.576;2022-10-28T01:54:48;96558.72;;;11.76
40047;BMP280;31510;48.122;11.576;2022-10-28T01:57:16;96561.50;;;11.73
40047;BMP280;31510;48.122;11.576;2022-10-28T01:59:44;96554.56;;;11.75
40047;BMP280;31510;48.122;11.576;2022-10-28T02:02:11;96553.84;;;11.75
40047;BMP280;31510;48.122;11.576;2022-10-28T02:04:36;96556.28;;;11.69
40047;BMP280;31510;48.122;11.576;2022-10-28T02:07:01;96555.53;;;11.69
40047;BMP280;31510;48.122;11.576;2022-10-28T02:09:53;96549.00;;;11.70
40047;BMP280;31510;48.122;11.576;2022-10-28T02:12:27;96549.44;;;11.68
40047;BMP280;31510;48.122;11.576;2022-10-28T02:20:50;96560.50;;;11.55
40047;BMP280;31510;48.122;11.576;2022-10-28T02:25:57;96549.09;;;11.54
40047;BMP280;31510;48.122;11.576;2022-10-28T02:28:33;96547.16;;;11.55
40047;BMP280;31510;48.122;11.576;2022-10-28T02:31:06;96550.16;;;11.56
40047;BMP280;31510;48.122;11.576;2022-10-28T02:33:37;96550.25;;;11.53
40047;BMP280;31510;48.122;11.576;2022-10-28T02:36:11;96551.09;;;11.50
40047;BMP280;31510;48.122;11.576;2022-10-28T02:38:41;96547.75;;;11.46
40047;BMP280;31510;48.122;11.576;2022-10-28T02:41:15;96552.75;;;11.44
40047;BMP280;31510;48.122;11.576;2022-10-28T02:43:44;96551.69;;;11.42
40047;BMP280;31510;48.122;11.576;2022-10-28T02:46:11;96551.78;;;11.38
40047;BMP280;31510;48.122;11.576;2022-10-28T02:48:44;96551.13;;;11.34
40047;BMP280;31510;48.122;11.576;2022-10-28T02:51:13;96546.63;;;11.31
40047;BMP280;31510;48.122;11.576;2022-10-28T02:56:27;96545.53;;;11.29
40047;BMP280;31510;48.122;11.576;2022-10-28T02:58:53;96542.84;;;11.29
40047;BMP280;31510;48.122;11.576;2022-10-28T03:01:19;96541.28;;;11.31
40047;BMP280;31510;48.122;11.576;2022-10-28T03:03:44;96539.69;;;11.34
40047;BMP280;31510;48.122;11.576;2022-10-28T03:06:09;96539.34;;;11.32
40047;BMP280;31510;48.122;11.576;2022-10-28T03:08:35;96533.69;;;11.30
40047;BMP280;31510;48.122;11.576;2022-10-28T03:11:00;96536.78;;;11.28
40047;BMP280;31510;48.122;11.576;2022-10-28T03:13:25;96536.88;;;11.25
40047;BMP280;31510;48.122;11.576;2022-10-28T03:15:51;96536.13;;;11.24
40047;BMP280;31510;48.122;11.576;2022-10-28T03:18:16;96546.16;;;11.20
40047;BMP280;31510;48.122;11.576;2022-10-28T03:20:41;96531.38;;;11.16
40047;BMP280;31510;48.122;11.576;2022-10-28T03:23:06;96530.56;;;11.19
40047;BMP280;31510;48.122;11.576;2022-10-28T03:25:32;96536.97;;;11.21
40047;BMP280;31510;48.122;11.576;2022-10-28T03:27:57;96535.06;;;11.22
40047;BMP280;31510;48.122;11.576;2022-10-28T03:30:22;96539.22;;;11.23
40047;BMP280;31510;48.122;11.576;2022-10-28T03:32:47;96538.38;;;11.26
40047;BMP280;31510;48.122;11.576;2022-10-28T03:35:13;96542.13;;;11.28
40047;BMP280;31510;48.122;11.576;2022-10-28T03:37:42;96542.03;;;11.32
40047;BMP280;31510;48.122;11.576;2022-10-28T03:40:08;96539.78;;;11.30
40047;BMP280;31510;48.122;11.576;2022-10-28T03:42:34;96537.19;;;11.27
40047;BMP280;31510;48.122;11.576;2022-10-28T03:44:59;96536.53;;;11.23
40047;BMP280;31510;48.122;11.576;2022-10-28T03:47:24;96535.06;;;11.22
40047;BMP280;31510;48.122;11.576;2022-10-28T03:49:50;96540.41;;;11.22
40047;BMP280;31510;48.122;11.576;2022-10-28T03:52:15;96541.47;;;11.24
40047;BMP280;31510;48.122;11.576;2022-10-28T03:54:40;96540.41;;;11.22
40047;BMP280;31510;48.122;11.576;2022-10-28T03:57:06;96539.22;;;11.23
40047;BMP280;31510;48.122;11.576;2022-10-28T03:59:31;96535.47;;;11.20
40047;BMP280;31510;48.122;11.576;2022-10-28T04:01:56;96539.63;;;11.21
40047;BMP280;31510;48.122;11.576;2022-10-28T04:04:21;96536.63;;;11.19
40047;BMP280;31510;48.122;11.576;2022-10-28T04:06:47;96540.81;;;11.20
40047;BMP280;31510;48.122;11.576;2022-10-28T04:09:12;96545.75;;;11.22
40047;BMP280;31510;48.122;11.576;2022-10-28T04:11:37;96538.81;;;11.24
40047;BMP280;31510;48.122;11.576;2022-10-28T04:14:02;96538.06;;;11.24
40047;BMP280;31510;48.122;11.576;2022-10-28T04:16:28;96542.22;;;11.25
40047;BMP280;31510;48.122;11.576;2022-10-28T04:18:53;96547.56;;;11.25
40047;BMP280;31510;48.122;11.576;2022-10-28T04:21:18;96542.63;;;11.23
40047;BMP280;31510;48.122;11.576;2022-10-28T04:23:44;96541.16;;;11.22
40047;BMP280;31510;48.122;11.576;2022-10-28T04:26:09;96533.97;;;11.19
40047;BMP280;31510;48.122;11.576;2022-10-28T04:28:34;96537.06;;;11.18
40047;BMP280;31510;48.122;11.576;2022-10-28T04:30:59;96522.63;;;11.15
40047;BMP280;31510;48.122;11.576;2022-10-28T04:33:26;96537.16;;;11.14
40047;BMP280;31510;48.122;11.576;2022-10-28T04:35:52;96538.34;;;11.14
40047;BMP280;31510;48.122;11.576;2022-10-28T04:38:17;96543.25;;;11.15
40047;BMP280;31510;48.122;11.576;2022-10-28T04:40:42;96542.06;;;11.16
40047;BMP280;31510;48.122;11.576;2022-10-28T04:43:10;96541.31;;;11.15
40047;BMP280;31510;48.122;11.576;2022-10-28T04:45:36;96536.00;;;11.15
40047;BMP280;31510;48.122;11.576;2022-10-28T04:48:02;96546.00;;;11.12
40047;BMP280;31510;48.122;11.576;2022-10-28T04:50:27;96540.31;;;11.10
40047;BMP280;31510;48.122;11.576;2022-10-28T04:52:52;96544.19;;;11.09
40047;BMP280;31510;48.122;11.576;2022-10-28T04:55:19;96532.75;;;11.08
40047;BMP280;31510;48.122;11.576;2022-10-28T04:57:55;96534.25;;;11.09
40047;BMP280;31510;48.122;11.576;2022-10-28T05:00:20;96529.22;;;11.11
40047;BMP280;31510;48.122;11.576;2022-10-28T05:02:46;96534.47;;;11.14
40047;BMP280;31510;48.122;11.576;2022-10-28T05:05:11;96532.13;;;11.16
40047;BMP280;31510;48.122;11.576;2022-10-28T05:07:37;96524.22;;;11.13
40047;BMP280;31510;48.122;11.576;2022-10-28T05:10:03;96533.09;;;11.10
40047;BMP280;31510;48.122;11.576;2022-10-28T05:12:28;96535.75;;;11.10
40047;BMP280;31510;48.122;11.576;2022-10-28T05:14:54;96522.81;;;11.09
40047;BMP280;31510;48.122;11.576;2022-10-28T05:17:19;96527.09;;;11.06
40047;BMP280;31510;48.122;11.576;2022-10-28T05:19:44;96529.75;;;11.06
40047;BMP280;31510;48.122;11.576;2022-10-28T05:22:10;96533.91;;;11.07
40047;BMP280;31510;48.122;11.576;2022-10-28T05:24:35;96531.25;;;11.07
40047;BMP280;31510;48.122;11.576;2022-10-28T05:27:00;96525.16;;;11.07
40047;BMP280;31510;48.122;11.576;2022-10-28T05:29:26;96522.41;;;11.10
40047;BMP280;31510;48.122;11.576;2022-10-28T05:31:51;96520.81;;;11.13
40047;BMP280;31510;48.122;11.576;2022-10-28T05:34:16;96525.09;;;11.10
40047;BMP280;31510;48.122;11.576;2022-10-28T05:36:41;96509.91;;;11.07
40047;BMP280;31510;48.122;11.576;2022-10-28T05:39:07;96519.50;;;11.05
40047;BMP280;31510;48.122;11.576;2022-10-28T05:41:32;96516.50;;;11.03
40047;BMP280;31510;48.122;11.576;2022-10-28T05:43:57;96521.41;;;11.04
40047;BMP280;31510;48.122;11.576;2022-10-28T05:46:23;96519.84;;;11.07
40047;BMP280;31510;48.122;11.576;2022-10-28T05:48:48;96517.47;;;11.09
40047;BMP280;31510;48.122;11.576;2022-10-28T05:51:13;96525.41;;;11.12
40047;BMP280;31510;48.122;11.576;2022-10-28T05:53:39;96519.22;;;11.15
40047;BMP280;31510;48.122;11.576;2022-10-28T05:56:07;96520.72;;;11.16
40047;BMP280;31510;48.122;11.576;2022-10-28T05:58:33;96523.72;;;11.18
40047;BMP280;31510;48.122;11.576;2022-10-28T06:00:58;96524.81;;;11.20
40047;BMP280;31510;48.122;11.576;2022-10-28T06:03:24;96528.53;;;11.23
40047;BMP280;31510;48.122;11.576;2022-10-28T06:05:49;96527.78;;;11.22
40047;BMP280;31510;48.122;11.576;2022-10-28T06:08:14;96536.53;;;11.23
40047;BMP280;31510;48.122;11.576;2022-10-28T06:10:40;96533.78;;;11.26
40047;BMP280;31510;48.122;11.576;2022-10-28T06:13:06;96539.44;;;11.28
40047;BMP280;31510;48.122;11.576;2022-10-28T06:15:32;96537.53;;;11.29
40047;BMP280;31510;48.122;11.576;2022-10-28T06:17:58;96542.53;;;11.27
40047;BMP280;31510;48.122;11.576;2022-10-28T06:20:23;96545.53;;;11.29
40047;BMP280;31510;48.122;11.576;2022-10-28T06:22:50;96545.13;;;11.30
40047;BMP280;31510;48.122;11.576;2022-10-28T06:25:16;96552.63;;;11.35
40047;BMP280;31510;48.122;11.576;2022-10-28T06:27:42;96549.84;;;11.39
40047;BMP280;31510;48.122;11.576;2022-10-28T06:30:07;96547.41;;;11.44
40047;BMP280;31510;48.122;11.576;2022-10-28T06:32:33;96548.84;;;11.49
40047;BMP280;31510;48.122;11.576;2022-10-28T06:34:58;96554.84;;;11.53
40047;BMP280;31510;48.122;11.576;2022-10-28T06:37:23;96552.41;;;11.58
40047;BMP280;31510;48.122;11.576;2022-10-28T06:39:48;96551.13;;;11.62
40047;BMP280;31510;48.122;11.576;2022-10-28T06:42:18;96554.44;;;11.66
40047;BMP280;31510;48.122;11.576;2022-10-28T06:44:43;96552.53;;;11.67
40047;BMP280;31510;48.122;11.576;2022-10-28T06:47:08;96546.44;;;11.66
40047;BMP280;31510;48.122;11.576;2022-10-28T06:49:34;96555.09;;;11.70
40047;BMP280;31510;48.122;11.576;2022-10-28T06:51:59;96551.59;;;11.73
40047;BMP280;31510;48.122;11.576;2022-10-28T06:54:24;96541.53;;;11.77
40047;BMP280;31510;48.122;11.576;2022-10-28T06:56:49;96550.19;;;11.81
40047;BMP280;31510;48.122;11.576;2022-10-28T06:59:15;96553.19;;;11.83
40047;BMP280;31510;48.122;11.576;2022-10-28T07:01:40;96555.75;;;11.87
40047;BMP280;31510;48.122;11.576;2022-10-28T07:04:10;96554.19;;;11.89
40047;BMP280;31510;48.122;11.576;2022-10-28T07:06:35;96565.50;;;11.93
40047;BMP280;31510;48.122;11.576;2022-10-28T07:09:01;96567.66;;;11.98
40047;BMP280;31510;48.122;11.576;2022-10-28T07:13:52;96568.94;;;12.06
40047;BMP280;31510;48.122;11.576;2022-10-28T07:16:17;96567.69;;;12.10
40047;BMP280;31510;48.122;11.576;2022-10-28T07:18:42;96565.63;;;12.14
40047;BMP280;31510;48.122;11.576;2022-10-28T07:21:08;96568.53;;;12.20
40047;BMP280;31510;48.122;11.576;2022-10-28T07:23:33;96574.88;;;12.26
40047;BMP280;31510;48.122;11.576;2022-10-28T07:25:59;96581.59;;;12.30
40047;BMP280;31510;48.122;11.576;2022-10-28T07:28:25;96583.00;;;12.35
40047;BMP280;31510;48.122;11.576;2022-10-28T07:30:51;96586.19;;;12.42
40047;BMP280;31510;48.122;11.576;2022-10-28T07:33:16;96591.03;;;12.47
40047;BMP280;31510;48.122;11.576;2022-10-28T07:35:41;96589.28;;;12.53
40047;BMP280;31510;48.122;11.576;2022-10-28T07:38:08;96590.25;;;12.59
40047;BMP280;31510;48.122;11.576;2022-10-28T07:40:33;96579.31;;;12.66
40047;BMP280;31510;48.122;11.576;2022-10-28T07:42:59;96579.09;;;12.73
40047;BMP280;31510;48.122;11.576;2022-10-28T07:45:24;96590.78;;;12.78
40047;BMP280;31510;48.122;11.576;2022-10-28T07:47:49;96579.88;;;12.85
40047;BMP280;31510;48.122;11.576;2022-10-28T07:50:15;96583.06;;;12.93
40047;BMP280;31510;48.122;11.576;2022-10-28T07:52:40;96581.34;;;12.99
40047;BMP280;31510;48.122;11.576;2022-10-28T07:55:06;96576.94;;;13.05
40047;BMP280;31510;48.122;11.576;2022-10-28T07:57:33;96582.06;;;13.12
40047;BMP280;31510;48.122;11.576;2022-10-28T07:59:58;96581.06;;;13.18
40047;BMP280;31510;48.122;11.576;2022-10-28T08:02:24;96580.53;;;13.23
40047;BMP280;31510;48.122;11.576;2022-10-28T08:04:50;96588.22;;;13.33
40047;BMP280;31510;48.122;11.576;2022-10-28T08:07:16;96586.78;;;13.41
40047;BMP280;31510;48.122;11.576;2022-10-28T08:09:42;96584.50;;;13.52
40047;BMP280;31510;48.122;11.576;2022-10-28T08:12:08;96583.38;;;13.62
40047;BMP280;31510;48.122;11.576;2022-10-28T08:14:35;96581.06;;;13.73
40047;BMP280;31510;48.122;11.576;2022-10-28T08:17:00;96576.81;;;13.84
40047;BMP280;31510;48.122;11.576;2022-10-28T08:19:26;96580.19;;;13.97
40047;BMP280;31510;48.122;11.576;2022-10-28T08:21:51;96579.25;;;14.12
40047;BMP280;31510;48.122;11.576;2022-10-28T08:24:16;96574.53;;;14.25
40047;BMP280;31510;48.122;11.576;2022-10-28T08:26:42;96577.75;;;14.41
40047;BMP280;31510;48.122;11.576;2022-10-28T08:29:09;96575.88;;;14.60
40047;BMP280;31510;48.122;11.576;2022-10-28T08:31:34;96583.56;;;14.79
40047;BMP280;31510;48.122;11.576;2022-10-28T08:33:59;96579.88;;;14.94
40047;BMP280;31510;48.122;11.576;2022-10-28T08:36:25;96567.50;;;15.06
40047;BMP280;31510;48.122;11.576;2022-10-28T08:38:50;96559.75;;;15.17
40047;BMP280;31510;48.122;11.576;2022-10-28T08:41:36;96563.53;;;15.28
40047;BMP280;31510;48.122;11.576;2022-10-28T08:44:46;96571.13;;;15.38
40047;BMP280;31510;48.122;11.576;2022-10-28T08:49:57;96566.19;;;15.55
40047;BMP280;31510;48.122;11.576;2022-10-28T08:52:45;96563.22;;;15.61
40047;BMP280;31510;48.122;11.576;2022-10-28T08:55:19;96567.69;;;15.73
40047;BMP280;31510;48.122;11.576;2022-10-28T08:57:51;96564.69;;;15.80
40047;BMP280;31510;48.122;11.576;2022-10-28T09:00:29;96555.69;;;15.83
40047;BMP280;31510;48.122;11.576;2022-10-28T09:05:24;96558.81;;;15.91
40047;BMP280;31510;48.122;11.576;2022-10-28T09:07:51;96557.19;;;15.93
40047;BMP280;31510;48.122;11.576;2022-10-28T09:10:24;96566.59;;;15.97
40047;BMP280;31510;48.122;11.576;2022-10-28T09:18:51;96569.84;;;16.10
40047;BMP280;31510;48.122;11.576;2022-10-28T09:21:43;96564.75;;;16.12
40047;BMP280;31510;48.122;11.576;2022-10-28T09:24:18;96569.69;;;16.14
40047;BMP280;31510;48.122;11.576;2022-10-28T09:35:30;96561.03;;;16.19
40047;BMP280;31510;48.122;11.576;2022-10-28T09:38:10;96563.72;;;16.19
40047;BMP280;31510;48.122;11.576;2022-10-28T09:40:41;96563.25;;;16.20
40047;BMP280;31510;48.122;11.576;2022-10-28T09:43:33;96566.56;;;16.24
40047;BMP280;31510;48.122;11.576;2022-10-28T09:46:05;96558.63;;;16.30
40047;BMP280;31510;48.122;11.576;2022-10-28T09:48:35;96567.41;;;16.39
40047;BMP280;31510;48.122;11.576;2022-10-28T09:51:01;96567.34;;;16.48
40047;BMP280;31510;48.122;11.576;2022-10-28T09:53:47;96563.59;;;16.54
40047;BMP280;31510;48.122;11.576;2022-10-28T09:56:14;96562.47;;;16.70
40047;BMP280;31510;48.122;11.576;2022-10-28T09:58:44;96561.28;;;16.94
40047;BMP280;31510;48.122;11.576;2022-10-28T10:01:10;96561.44;;;17.14
40047;BMP280;31510;48.122;11.576;2022-10-28T10:03:36;96551.06;;;17.30
40047;BMP280;31510;48.122;11.576;2022-10-28T10:06:12;96552.56;;;17.45
40047;BMP280;31510;48.122;11.576;2022-10-28T10:08:38;96559.66;;;17.57
40047;BMP280;31510;48.122;11.576;2022-10-28T10:11:08;96556.31;;;17.62
40047;BMP280;31510;48.122;11.576;2022-10-28T10:13:40;96544.78;;;17.61
40047;BMP280;31510;48.122;11.576;2022-10-28T10:16:16;96555.59;;;17.61
40047;BMP280;31510;48.122;11.576;2022-10-28T10:18:46;96543.97;;;17.70
40047;BMP280;31510;48.122;11.576;2022-10-28T10:21:13;96538.94;;;17.77
40047;BMP280;31510;48.122;11.576;2022-10-28T10:23:40;96541.28;;;17.84
40047;BMP280;31510;48.122;11.576;2022-10-28T10:26:15;96542.84;;;17.91
40047;BMP280;31510;48.122;11.576;2022-10-28T10:28:45;96538.03;;;17.95
40047;BMP280;31510;48.122;11.576;2022-10-28T10:31:18;96531.13;;;17.94
40047;BMP280;31510;48.122;11.576;2022-10-28T10:33:48;96534.56;;;17.94
40047;BMP280;31510;48.122;11.576;2022-10-28T10:36:17;96535.25;;;18.03
40047;BMP280;31510;48.122;11.576;2022-10-28T10:38:50;96526.66;;;18.05
40047;BMP280;31510;48.122;11.576;2022-10-28T10:41:42;96526.03;;;18.10
40047;BMP280;31510;48.122;11.576;2022-10-28T10:44:22;96530.13;;;18.20
40047;BMP280;31510;48.122;11.576;2022-10-28T10:49:29;96525.28;;;18.24
40047;BMP280;31510;48.122;11.576;2022-10-28T10:52:00;96524.81;;;18.25
40047;BMP280;31510;48.122;11.576;2022-10-28T10:54:29;96529.28;;;18.28
40047;BMP280;31510;48.122;11.576;2022-10-28T10:57:16;96521.47;;;18.30
40047;BMP280;31510;48.122;11.576;2022-10-28T10:59:47;96515.13;;;18.33
40047;BMP280;31510;48.122;11.576;2022-10-28T11:02:23;96508.50;;;18.34
40047;BMP280;31510;48.122;11.576;2022-10-28T11:04:51;96510.00;;;18.35
40047;BMP280;31510;48.122;11.576;2022-10-28T11:07:17;96510.81;;;18.41
40047;BMP280;31510;48.122;11.576;2022-10-28T11:09:46;96508.47;;;18.48
40047;BMP280;31510;48.122;11.576;2022-10-28T11:12:27;96500.44;;;18.54
40047;BMP280;31510;48.122;11.576;2022-10-28T11:17:23;96499.50;;;18.57
40047;BMP280;31510;48.122;11.576;2022-10-28T11:19:51;96499.50;;;18.57
40047;BMP280;31510;48.122;11.576;2022-10-28T11:30:13;96487.53;;;18.78
40047;BMP280;31510;48.122;11.576;2022-10-28T11:38:13;96466.47;;;19.01
40047;BMP280;31510;48.122;11.576;2022-10-28T11:43:42;96459.28;;;19.18
40047;BMP280;31510;48.122;11.576;2022-10-28T11:51:51;96458.47;;;19.32
40047;BMP280;31510;48.122;11.576;2022-10-28T11:54:44;96459.00;;;19.36
40047;BMP280;31510;48.122;11.576;2022-10-28T11:57:18;96454.88;;;19.40
40047;BMP280;31510;48.122;11.576;2022-10-28T12:03:00;96443.09;;;19.68
40047;BMP280;31510;48.122;11.576;2022-10-28T12:05:36;96454.94;;;19.76
40047;BMP280;31510;48.122;11.576;2022-10-28T12:08:36;96446.44;;;19.83
40047;BMP280;31510;48.122;11.576;2022-10-28T12:11:31;96445.25;;;19.90
40047;BMP280;31510;48.122;11.576;2022-10-28T12:14:10;96442.09;;;19.91
40047;BMP280;31510;48.122;11.576;2022-10-28T12:16:43;96445.13;;;20.04
40047;BMP280;31510;48.122;11.576;2022-10-28T12:19:16;96437.25;;;20.06
40047;BMP280;31510;48.122;11.576;2022-10-28T12:22:12;96438.97;;;20.03
40047;BMP280;31510;48.122;11.576;2022-10-28T12:24:41;96430.56;;;20.01
40047;BMP280;31510;48.122;11.576;2022-10-28T12:27:13;96429.63;;;20.04
40047;BMP280;31510;48.122;11.576;2022-10-28T12:29:42;96435.53;;;20.08
40047;BMP280;31510;48.122;11.576;2022-10-28T12:32:12;96428.44;;;20.11
40047;BMP280;31510;48.122;11.576;2022-10-28T12:34:42;96425.50;;;20.14
40047;BMP280;31510;48.122;11.576;2022-10-28T12:37:15;96421.06;;;20.11
40047;BMP280;31510;48.122;11.576;2022-10-28T12:39:51;96413.00;;;20.22
40047;BMP280;31510;48.122;11.576;2022-10-28T12:42:24;96415.53;;;20.37
40047;BMP280;31510;48.122;11.576;2022-10-28T12:44:51;96406.25;;;20.48
40047;BMP280;31510;48.122;11.576;2022-10-28T12:47:23;96410.25;;;20.58
40047;BMP280;31510;48.122;11.576;2022-10-28T12:56:06;96404.41;;;20.71
40047;BMP280;31510;48.122;11.576;2022-10-28T12:58:53;96404.66;;;20.67
40047;BMP280;31510;48.122;11.576;2022-10-28T13:01:26;96399.97;;;20.68
40047;BMP280;31510;48.122;11.576;2022-10-28T13:03:53;96403.38;;;20.63
40047;BMP280;31510;48.122;11.576;2022-10-28T13:06:51;96408.03;;;20.62
40047;BMP280;31510;48.122;11.576;2022-10-28T13:09:36;96413.69;;;20.59
40047;BMP280;31510;48.122;11.576;2022-10-28T13:12:33;96401.78;;;20.45
40047;BMP280;31510;48.122;11.576;2022-10-28T13:23:58;96396.75;;;20.22
40047;BMP280;31510;48.122;11.576;2022-10-28T13:26:27;96393.31;;;20.22
40047;BMP280;31510;48.122;11.576;2022-10-28T13:28:56;96393.78;;;20.20
40047;BMP280;31510;48.122;11.576;2022-10-28T13:31:35;96397.22;;;20.21
40047;BMP280;31510;48.122;11.576;2022-10-28T13:34:01;96395.28;;;20.21
40047;BMP280;31510;48.122;11.576;2022-10-28T13:36:32;96399.72;;;20.24
40047;BMP280;31510;48.122;11.576;2022-10-28T13:39:03;96398.28;;;20.29
40047;BMP280;31510;48.122;11.576;2022-10-28T13:49:29;96397.22;;;20.21
40047;BMP280;31510;48.122;11.576;2022-10-28T13:54:54;96395.44;;;20.07
40047;BMP280;31510;48.122;11.576;2022-10-28T13:59:59;96390.16;;;19.93
40047;BMP280;31510;48.122;11.576;2022-10-28T14:02:46;96384.72;;;19.93
40047;BMP280;31510;48.122;11.576;2022-10-28T14:05:15;96396.31;;;19.93
40047;BMP280;31510;48.122;11.576;2022-10-28T14:08:07;96393.34;;;19.91
40047;BMP280;31510;48.122;11.576;2022-10-28T14:13:23;96395.06;;;19.89
40047;BMP280;31510;48.122;11.576;2022-10-28T14:16:30;96401.91;;;19.84
40047;BMP280;31510;48.122;11.576;2022-10-28T14:19:05;96392.22;;;19.78
40047;BMP280;31510;48.122;11.576;2022-10-28T14:24:33;96400.56;;;19.74
40047;BMP280;31510;48.122;11.576;2022-10-28T14:37:41;96403.97;;;19.69
40047;BMP280;31510;48.122;11.576;2022-10-28T14:40:33;96400.31;;;19.72
40047;BMP280;31510;48.122;11.576;2022-10-28T14:45:56;96401.53;;;19.71
40047;BMP280;31510;48.122;11.576;2022-10-28T14:48:40;96398.81;;;19.71
40047;BMP280;31510;48.122;11.576;2022-10-28T14:51:12;96395.13;;;19.69
40047;BMP280;31510;48.122;11.576;2022-10-28T14:53:40;96398.31;;;19.67
40047;BMP280;31510;48.122;11.576;2022-10-28T14:56:09;96399.03;;;19.68
40047;BMP280;31510;48.122;11.576;2022-10-28T14:58:38;96395.84;;;19.69
40047;BMP280;31510;48.122;11.576;2022-10-28T15:03:29;96398.78;;;19.66
40047;BMP280;31510;48.122;11.576;2022-10-28T15:05:54;96399.00;;;19.62
40047;BMP280;31510;48.122;11.576;2022-10-28T15:08:20;96409.78;;;19.57
40047;BMP280;31510;48.122;11.576;2022-10-28T15:10:47;96402.34;;;19.52
40047;BMP280;31510;48.122;11.576;2022-10-28T15:13:16;96402.28;;;19.47
40047;BMP280;31510;48.122;11.576;2022-10-28T15:15:53;96394.81;;;19.36
40047;BMP280;31510;48.122;11.576;2022-10-28T15:18:21;96393.31;;;19.30
40047;BMP280;31510;48.122;11.576;2022-10-28T15:20:47;96391.28;;;19.25
40047;BMP280;31510;48.122;11.576;2022-10-28T15:23:18;96397.84;;;19.19
40047;BMP280;31510;48.122;11.576;2022-10-28T15:25:44;96403.66;;;19.12
40047;BMP280;31510;48.122;11.576;2022-10-28T15:28:11;96401.38;;;19.05
40047;BMP280;31510;48.122;11.576;2022-10-28T15:30:38;96398.63;;;18.99
40047;BMP280;31510;48.122;11.576;2022-10-28T15:35:52;96404.09;;;18.85
40047;BMP280;31510;48.122;11.576;2022-10-28T15:38:25;96408.44;;;18.77
40047;BMP280;31510;48.122;11.576;2022-10-28T15:40:56;96404.63;;;18.69
40047;BMP280;31510;48.122;11.576;2022-10-28T15:43:27;96397.69;;;18.63
40047;BMP280;31510;48.122;11.576;2022-10-28T15:45:53;96400.31;;;18.57
40047;BMP280;31510;48.122;11.576;2022-10-28T15:48:23;96395.31;;;18.50
40047;BMP280;31510;48.122;11.576;2022-10-28T15:51:11;96400.38;;;18.43
40047;BMP280;31510;48.122;11.576;2022-10-28T15:53:39;96408.41;;;18.38
40047;BMP280;31510;48.122;11.576;2022-10-28T15:58:40;96407.44;;;18.21
40047;BMP280;31510;48.122;11.576;2022-10-28T16:01:09;96405.16;;;18.14
40047;BMP280;31510;48.122;11.576;2022-10-28T16:03:50;96407.44;;;18.06
40047;BMP280;31510;48.122;11.576;2022-10-28T16:06:24;96414.00;;;18.00
40047;BMP280;31510;48.122;11.576;2022-10-28T16:08:58;96408.22;;;17.93
40047;BMP280;31510;48.122;11.576;2022-10-28T16:11:25;96402.94;;;17.84
40047;BMP280;31510;48.122;11.576;2022-10-28T16:13:50;96399.41;;;17.78
40047;BMP280;31510;48.122;11.576;2022-10-28T16:16:27;96398.59;;;17.72
40047;BMP280;31510;48.122;11.576;2022-10-28T16:21:24;96394.22;;;17.60
40047;BMP280;31510;48.122;11.576;2022-10-28T16:23:52;96405.19;;;17.57
40047;BMP280;31510;48.122;11.576;2022-10-28T16:26:24;96407.06;;;17.51
40047;BMP280;31510;48.122;11.576;2022-10-28T16:28:50;96399.63;;;17.46
40047;BMP280;31510;48.122;11.576;2022-10-28T16:31:16;96409.09;;;17.41
40047;BMP280;31510;48.122;11.576;2022-10-28T16:33:42;96413.22;;;17.37
40047;BMP280;31510;48.122;11.576;2022-10-28T16:36:08;96403.06;;;17.32
40047;BMP280;31510;48.122;11.576;2022-10-28T16:38:33;96409.38;;;17.29